Time;durP1;ratioP1;P1;durP2;ratioP2;P2;SDS_P1;SDS_P2;PMS_P1;PMS_P2;Temp;Humidity;BMP_temperature;BMP_pressure;BME280_temperature;BME280_humidity;BME280_pressure;Samples;Min_cycle;Max_cycle;Signal;HPM_P1;HPM_P2
2024/04/03 00:00:02;;;;;;;4.87;3.30;;;4.10;99.40;;;;;;5083588;28;20251;-62
2024/04/03 00:02:28;;;;;;;6.57;3.87;;;4.10;99.90;;;;;;5080526;28;20456;-62
2024/04/03 00:04:53;;;;;;;11.10;5.10;;;4.10;99.20;;;;;;5087849;28;20432;-63
2024/04/03 00:07:19;;;;;;;6.07;4.40;;;4.00;99.80;;;;;;5082256;28;20293;-63
2024/04/03 00:09:44;;;;;;;10.97;4.40;;;4.00;99.60;;;;;;5075884;28;20197;-62
2024/04/03 00:12:10;;;;;;;11.23;4.80;;;4.00;99.80;;;;;;5084230;28;20209;-63
2024/04/03 00:14:36;;;;;;;7.03;4.13;;;4.00;99.90;;;;;;5079868;28;20174;-62
2024/04/03 00:17:02;;;;;;;8.20;5.30;;;3.90;99.90;;;;;;5078870;28;20205;-62
2024/04/03 00:19:27;;;;;;;9.70;4.90;;;3.90;99.90;;;;;;5078157;28;20204;-62
2024/04/03 00:21:53;;;;;;;5.60;4.00;;;3.90;99.90;;;;;;5079406;28;20189;-62
2024/04/03 00:24:18;;;;;;;5.40;3.90;;;3.90;99.90;;;;;;5083317;28;20549;-62
2024/04/03 00:26:44;;;;;;;7.07;3.80;;;3.90;99.90;;;;;;5082273;28;20182;-63
2024/04/03 00:29:11;;;;;;;7.27;3.40;;;3.80;99.90;;;;;;5080793;28;20652;-63
2024/04/03 00:31:37;;;;;;;3.77;3.33;;;3.80;99.90;;;;;;5076907;28;20263;-63
2024/04/03 00:34:02;;;;;;;11.90;3.70;;;3.80;99.90;;;;;;5081854;28;21142;-62
2024/04/03 00:36:28;;;;;;;7.77;3.80;;;3.80;99.90;;;;;;5078921;28;20177;-63
2024/04/03 00:38:54;;;;;;;7.67;4.30;;;3.70;99.90;;;;;;5079535;28;20177;-62
2024/04/03 00:41:20;;;;;;;5.17;4.07;;;3.70;99.90;;;;;;5077284;28;20243;-64
2024/04/03 00:43:46;;;;;;;8.33;4.20;;;3.70;99.90;;;;;;5079831;28;20669;-62
2024/04/03 00:46:12;;;;;;;5.40;3.57;;;3.70;99.90;;;;;;5083423;28;20174;-62
2024/04/03 00:48:37;;;;;;;6.10;3.80;;;3.60;99.90;;;;;;5083023;28;20672;-63
2024/04/03 00:51:03;;;;;;;7.73;3.90;;;3.60;99.90;;;;;;5079324;28;20443;-62
2024/04/03 00:53:30;;;;;;;4.73;3.30;;;3.60;99.90;;;;;;5079029;28;20582;-63
2024/04/03 00:55:56;;;;;;;5.80;3.75;;;3.60;99.90;;;;;;5083901;28;20427;-63
2024/04/03 00:58:22;;;;;;;7.50;3.37;;;3.60;99.90;;;;;;5085836;28;20167;-62
2024/04/03 01:00:47;;;;;;;6.37;3.67;;;3.60;99.90;;;;;;5080250;28;21586;-62
2024/04/03 01:03:13;;;;;;;4.17;3.10;;;3.60;99.90;;;;;;5082920;28;20174;-63
2024/04/03 01:05:39;;;;;;;3.60;3.10;;;3.60;99.90;;;;;;5080860;28;20178;-63
2024/04/03 01:08:04;;;;;;;6.20;3.53;;;3.60;99.90;;;;;;5081391;28;20185;-61
2024/04/03 01:10:31;;;;;;;6.73;3.93;;;3.60;99.90;;;;;;5078665;28;20280;-63
2024/04/03 01:13:01;;;;;;;5.70;3.33;;;3.60;99.90;;;;;;5077467;28;20266;-63
2024/04/03 01:15:27;;;;;;;5.77;3.73;;;3.60;99.90;;;;;;5082108;28;20431;-63
2024/04/03 01:17:52;;;;;;;7.27;3.30;;;3.50;99.90;;;;;;5084412;28;20426;-62
2024/04/03 01:20:18;;;;;;;4.90;3.27;;;3.50;99.90;;;;;;5081531;28;20840;-62
2024/04/03 01:22:44;;;;;;;5.53;3.20;;;3.50;99.90;;;;;;5077578;28;20208;-63
2024/04/03 01:25:09;;;;;;;5.00;3.60;;;3.50;99.90;;;;;;5082897;28;20186;-63
2024/04/03 01:27:35;;;;;;;6.93;3.30;;;3.50;99.90;;;;;;5079418;28;20181;-60
2024/04/03 01:30:00;;;;;;;4.20;3.37;;;3.50;99.90;;;;;;5083472;28;20225;-62
2024/04/03 01:32:28;;;;;;;4.87;3.23;;;3.40;99.90;;;;;;5082110;28;20212;-63
2024/04/03 01:34:53;;;;;;;5.22;3.05;;;3.40;99.90;;;;;;5080382;28;20653;-63
2024/04/03 01:37:20;;;;;;;6.50;3.67;;;3.40;99.90;;;;;;5081721;28;20186;-62
2024/04/03 01:39:49;;;;;;;3.80;3.07;;;3.40;99.90;;;;;;5072247;28;20194;-63
2024/04/03 01:42:16;;;;;;;4.37;2.93;;;3.30;99.90;;;;;;5078922;28;20428;-63
2024/04/03 01:44:41;;;;;;;4.70;3.20;;;3.30;99.90;;;;;;5076180;28;20428;-62
2024/04/03 01:47:07;;;;;;;5.57;3.27;;;3.30;99.90;;;;;;5075527;28;20420;-63
2024/04/03 01:49:33;;;;;;;5.27;3.50;;;3.20;99.90;;;;;;5073993;28;20185;-62
2024/04/03 01:51:58;;;;;;;4.53;3.00;;;3.20;99.90;;;;;;5079414;28;20197;-63
2024/04/03 01:54:24;;;;;;;4.67;3.13;;;3.20;99.90;;;;;;5082116;28;20174;-62
2024/04/03 01:56:50;;;;;;;6.15;3.40;;;3.20;99.90;;;;;;5081504;28;20216;-62
2024/04/03 01:59:15;;;;;;;4.50;3.60;;;3.20;99.90;;;;;;5079335;28;20229;-62
2024/04/03 02:01:41;;;;;;;6.30;3.97;;;3.20;99.90;;;;;;5078263;28;20203;-63
2024/04/03 02:04:07;;;;;;;10.20;4.30;;;3.30;99.90;;;;;;5073677;28;20190;-62
2024/04/03 02:06:32;;;;;;;10.60;3.77;;;3.30;99.90;;;;;;5081932;28;20182;-63
2024/04/03 02:08:58;;;;;;;6.07;3.87;;;3.30;99.90;;;;;;5075704;28;20192;-63
2024/04/03 02:11:23;;;;;;;7.03;4.10;;;3.20;99.90;;;;;;5080148;28;20217;-63
2024/04/03 02:13:49;;;;;;;11.77;3.50;;;3.20;99.90;;;;;;5073816;28;20183;-62
2024/04/03 02:16:14;;;;;;;9.43;3.40;;;3.20;99.90;;;;;;5083541;28;20202;-63
2024/04/03 02:18:40;;;;;;;8.23;3.30;;;3.20;99.90;;;;;;5077665;28;20255;-62
2024/04/03 02:21:06;;;;;;;4.30;3.17;;;3.10;99.90;;;;;;5076832;28;20586;-63
2024/04/03 02:23:32;;;;;;;10.53;3.87;;;3.20;99.90;;;;;;5072194;28;20196;-62
2024/04/03 02:25:57;;;;;;;4.63;3.20;;;3.10;99.90;;;;;;5075627;28;20490;-63
2024/04/03 02:28:23;;;;;;;7.33;3.87;;;3.10;99.90;;;;;;5081756;28;20174;-63
2024/04/03 02:30:58;;;;;;;8.63;3.90;;;3.10;99.90;;;;;;5080100;28;20193;-62
2024/04/03 02:33:23;;;;;;;10.43;4.20;;;3.10;99.90;;;;;;5076504;28;20537;-62
2024/04/03 02:35:49;;;;;;;13.53;4.27;;;3.10;99.90;;;;;;5077112;28;20464;-63
2024/04/03 02:38:14;;;;;;;11.63;5.07;;;3.00;99.90;;;;;;5076044;28;20192;-62
2024/04/03 02:40:40;;;;;;;8.90;4.23;;;3.00;99.90;;;;;;5073482;28;20286;-62
2024/04/03 02:43:06;;;;;;;5.57;3.90;;;3.00;99.90;;;;;;5079514;28;20671;-63
2024/04/03 02:45:31;;;;;;;4.10;3.23;;;3.00;99.90;;;;;;5071675;28;20265;-61
2024/04/03 02:47:59;;;;;;;5.67;3.40;;;3.00;99.90;;;;;;5076813;28;20174;-63
2024/04/03 02:50:25;;;;;;;4.93;3.40;;;3.00;99.90;;;;;;5080839;28;20332;-63
2024/04/03 02:52:51;;;;;;;7.20;3.30;;;3.00;99.90;;;;;;5077872;28;20540;-63
2024/04/03 02:55:17;;;;;;;6.30;3.85;;;3.10;99.90;;;;;;5081071;28;20180;-61
2024/04/03 02:57:42;;;;;;;10.23;4.53;;;3.10;99.90;;;;;;5076275;28;20178;-62
2024/04/03 03:00:09;;;;;;;7.00;4.20;;;3.10;99.90;;;;;;5077875;28;20204;-62
2024/04/03 03:02:34;;;;;;;7.90;4.23;;;3.10;99.90;;;;;;5085166;28;20205;-62
2024/04/03 03:05:00;;;;;;;8.13;5.13;;;3.10;99.90;;;;;;5082629;28;20436;-63
2024/04/03 03:07:25;;;;;;;6.23;4.13;;;3.10;99.90;;;;;;5081672;28;20641;-62
2024/04/03 03:09:51;;;;;;;6.50;3.90;;;3.00;99.90;;;;;;5081237;28;20202;-62
2024/04/03 03:12:16;;;;;;;6.07;4.20;;;3.00;99.90;;;;;;5084773;28;20699;-62
2024/04/03 03:14:42;;;;;;;6.47;4.03;;;3.00;99.90;;;;;;5085769;28;20174;-62
2024/04/03 03:17:07;;;;;;;9.00;4.87;;;3.00;99.90;;;;;;5080453;28;20177;-62
2024/04/03 03:19:33;;;;;;;9.43;4.67;;;3.00;99.90;;;;;;5082176;28;20169;-63
2024/04/03 03:21:59;;;;;;;6.47;4.53;;;3.10;99.90;;;;;;5078864;28;20676;-63
2024/04/03 03:24:24;;;;;;;8.73;4.50;;;3.10;99.90;;;;;;5084199;28;20659;-63
2024/04/03 03:26:50;;;;;;;6.40;3.87;;;3.10;99.90;;;;;;5083073;28;20173;-63
2024/04/03 03:29:16;;;;;;;5.70;3.83;;;3.10;99.90;;;;;;5077987;28;20212;-62
2024/04/03 03:31:41;;;;;;;7.40;3.70;;;3.10;99.90;;;;;;5085650;28;20459;-63
2024/04/03 03:34:07;;;;;;;5.13;3.40;;;3.20;99.90;;;;;;5077616;28;20764;-63
2024/04/03 03:36:32;;;;;;;6.80;3.90;;;3.20;99.90;;;;;;5086283;28;20173;-62
2024/04/03 03:38:58;;;;;;;10.20;4.10;;;3.20;99.90;;;;;;5079559;28;22147;-63
2024/04/03 03:41:24;;;;;;;6.40;4.10;;;3.20;99.90;;;;;;5081266;28;20210;-63
2024/04/03 03:43:49;;;;;;;5.63;3.50;;;3.20;99.90;;;;;;5076858;28;20179;-62
2024/04/03 03:46:16;;;;;;;7.20;4.10;;;3.30;99.90;;;;;;5073554;28;20177;-63
2024/04/03 03:54:10;;;;;;;7.20;4.43;;;3.30;99.90;;;;;;5084897;28;20181;-63
2024/04/03 03:56:35;;;;;;;12.57;5.00;;;3.20;99.90;;;;;;5072748;28;20429;-62
2024/04/03 03:59:01;;;;;;;8.10;4.47;;;3.20;99.90;;;;;;5079589;28;20181;-62
2024/04/03 04:01:27;;;;;;;13.13;4.50;;;3.10;99.90;;;;;;5080518;28;20700;-60
2024/04/03 04:03:52;;;;;;;4.83;3.37;;;3.10;99.90;;;;;;5080164;28;20179;-60
2024/04/03 04:06:18;;;;;;;7.87;3.60;;;3.10;99.90;;;;;;5070984;28;20692;-59
2024/04/03 04:08:43;;;;;;;4.37;3.57;;;3.10;99.90;;;;;;5077403;28;20182;-63
2024/04/03 04:11:09;;;;;;;7.57;5.13;;;3.10;99.90;;;;;;5080734;28;20734;-63
2024/04/03 04:13:34;;;;;;;9.77;4.20;;;3.10;99.90;;;;;;5081606;28;20253;-62
2024/04/03 04:16:01;;;;;;;8.13;5.20;;;3.10;99.90;;;;;;5078070;28;21004;-64
2024/04/03 04:18:27;;;;;;;12.10;5.47;;;3.10;99.90;;;;;;5078961;28;20263;-63
2024/04/03 04:20:56;;;;;;;6.10;4.93;;;3.10;99.90;;;;;;5078496;28;20900;-63
2024/04/03 04:23:22;;;;;;;9.50;5.20;;;3.10;99.90;;;;;;5069559;28;20186;-62
2024/04/03 04:26:01;;;;;;;11.47;5.70;;;3.10;99.90;;;;;;5076625;28;20440;-63
2024/04/03 04:28:27;;;;;;;8.87;6.10;;;3.10;99.90;;;;;;5076395;28;20420;-62
2024/04/03 04:31:00;;;;;;;7.57;5.47;;;3.10;99.90;;;;;;5078645;28;20448;-64
2024/04/03 04:33:28;;;;;;;10.17;4.43;;;3.10;99.90;;;;;;5081451;28;20428;-64
2024/04/03 04:35:55;;;;;;;10.30;4.67;;;3.20;99.90;;;;;;5080809;28;20426;-64
2024/04/03 04:38:25;;;;;;;8.70;5.20;;;3.10;99.90;;;;;;5079908;28;20477;-64
2024/04/03 04:41:02;;;;;;;11.93;5.50;;;3.20;99.90;;;;;;5078467;28;20455;-66
2024/04/03 04:43:29;;;;;;;10.10;5.72;;;3.20;99.90;;;;;;5079324;28;20191;-65
2024/04/03 04:46:01;;;;;;;8.73;5.00;;;3.20;99.90;;;;;;5078906;28;20640;-65
2024/04/03 04:48:30;;;;;;;6.93;5.00;;;3.20;99.90;;;;;;5078827;28;20448;-64
2024/04/03 04:51:02;;;;;;;5.20;4.20;;;3.20;99.90;;;;;;5081350;28;20440;-65
2024/04/03 04:53:28;;;;;;;8.15;4.93;;;3.20;99.90;;;;;;5077286;28;20452;-65
2024/04/03 04:55:55;;;;;;;11.00;5.50;;;3.30;99.90;;;;;;5087688;28;21370;-65
2024/04/03 04:58:25;;;;;;;8.97;5.40;;;3.30;99.90;;;;;;5078536;28;20439;-65
2024/04/03 05:01:03;;;;;;;10.47;6.10;;;3.30;99.90;;;;;;5080543;28;20448;-65
2024/04/03 05:03:29;;;;;;;7.77;5.37;;;3.40;99.90;;;;;;5078207;28;20438;-64
2024/04/03 05:05:55;;;;;;;10.43;4.80;;;3.50;99.90;;;;;;5074630;28;20413;-65
2024/04/03 05:08:21;;;;;;;10.23;4.97;;;3.50;99.90;;;;;;5082526;28;20269;-63
2024/04/03 05:10:59;;;;;;;11.20;5.00;;;3.50;99.90;;;;;;5082028;28;20524;-62
2024/04/03 05:13:30;;;;;;;8.77;5.10;;;3.60;99.90;;;;;;5078701;28;20189;-64
2024/04/03 05:15:56;;;;;;;8.60;5.30;;;3.60;99.90;;;;;;5081717;28;20421;-65
2024/04/03 05:18:22;;;;;;;10.30;5.80;;;3.60;99.90;;;;;;5079841;28;20448;-65
2024/04/03 05:20:47;;;;;;;6.13;4.60;;;3.60;99.90;;;;;;5075762;28;20448;-65
2024/04/03 05:23:13;;;;;;;4.47;3.80;;;3.60;99.90;;;;;;5080246;28;20521;-64
2024/04/03 05:25:39;;;;;;;7.33;3.73;;;3.70;99.90;;;;;;5073639;28;20178;-64
2024/04/03 05:28:04;;;;;;;4.93;3.57;;;3.70;99.90;;;;;;5075850;28;20174;-63
2024/04/03 05:30:37;;;;;;;7.03;3.97;;;3.70;99.90;;;;;;5082167;28;20238;-64
2024/04/03 05:33:03;;;;;;;4.13;3.47;;;3.70;99.90;;;;;;5080435;28;20551;-63
2024/04/03 05:35:29;;;;;;;11.70;3.43;;;3.70;99.90;;;;;;5083075;28;20499;-59
2024/04/03 05:37:54;;;;;;;6.20;3.90;;;3.70;99.90;;;;;;5073622;28;20582;-58
2024/04/03 05:40:20;;;;;;;4.90;3.93;;;3.70;99.90;;;;;;5078017;28;20215;-63
2024/04/03 05:42:45;;;;;;;5.87;3.93;;;3.70;99.90;;;;;;5074155;28;20179;-65
2024/04/03 05:45:11;;;;;;;7.50;3.90;;;3.80;99.90;;;;;;5084079;28;20202;-64
2024/04/03 05:47:37;;;;;;;9.57;4.63;;;3.80;99.90;;;;;;5076169;28;20195;-64
2024/04/03 05:50:05;;;;;;;6.27;4.17;;;3.80;99.90;;;;;;5077813;28;20572;-64
2024/04/03 05:52:36;;;;;;;8.23;3.97;;;3.90;99.90;;;;;;5079574;28;20719;-63
2024/04/03 05:55:01;;;;;;;8.73;4.40;;;3.90;99.90;;;;;;5084808;28;20407;-62
2024/04/03 05:57:27;;;;;;;6.30;3.83;;;3.80;99.90;;;;;;5083765;28;20492;-64
2024/04/03 05:59:53;;;;;;;8.80;4.77;;;3.80;99.90;;;;;;5075353;28;20200;-64
2024/04/03 06:02:18;;;;;;;10.50;5.73;;;3.80;99.90;;;;;;5075301;28;20206;-63
2024/04/03 06:04:44;;;;;;;11.03;6.27;;;3.80;99.90;;;;;;5084105;28;20732;-65
2024/04/03 06:07:10;;;;;;;12.90;5.33;;;3.80;99.90;;;;;;5084470;28;20174;-64
2024/04/03 06:09:35;;;;;;;11.00;5.20;;;3.80;99.90;;;;;;5080168;28;20171;-63
2024/04/03 06:12:01;;;;;;;9.73;5.13;;;3.80;99.90;;;;;;5076308;28;20664;-63
2024/04/03 06:14:26;;;;;;;12.50;7.00;;;3.70;99.90;;;;;;5083115;28;20231;-63
2024/04/03 06:16:52;;;;;;;14.50;6.13;;;3.80;99.90;;;;;;5084472;28;20177;-64
2024/04/03 06:19:18;;;;;;;12.20;6.10;;;3.70;99.90;;;;;;5084319;28;20180;-64
2024/04/03 06:21:43;;;;;;;13.00;6.40;;;3.80;99.90;;;;;;5077046;28;20233;-64
2024/04/03 06:24:09;;;;;;;11.40;6.70;;;3.80;99.90;;;;;;5071415;28;20236;-65
2024/04/03 06:26:35;;;;;;;13.60;6.17;;;3.80;99.90;;;;;;5082258;28;20187;-63
2024/04/03 06:29:02;;;;;;;10.97;6.90;;;3.80;99.90;;;;;;5081589;28;20602;-63
2024/04/03 06:31:28;;;;;;;14.03;6.83;;;3.80;99.90;;;;;;5078964;28;21126;-65
2024/04/03 06:33:56;;;;;;;12.97;6.53;;;3.90;99.90;;;;;;5080231;28;20451;-64
2024/04/03 06:36:23;;;;;;;12.50;7.18;;;3.90;99.90;;;;;;5077800;28;20448;-65
2024/04/03 06:38:48;;;;;;;12.37;6.80;;;3.90;99.90;;;;;;5073261;28;20171;-63
2024/04/03 06:41:14;;;;;;;11.40;7.37;;;4.00;99.90;;;;;;5072754;28;20467;-64
2024/04/03 06:43:39;;;;;;;13.20;6.00;;;4.00;99.90;;;;;;5074747;28;20201;-64
2024/04/03 06:46:05;;;;;;;17.37;6.37;;;4.00;99.90;;;;;;5078500;28;20174;-63
2024/04/03 06:48:31;;;;;;;10.33;5.97;;;4.00;99.90;;;;;;5085148;28;20177;-64
2024/04/03 06:50:56;;;;;;;11.40;6.53;;;4.10;99.90;;;;;;5086052;28;20201;-64
2024/04/03 06:53:22;;;;;;;9.70;6.60;;;4.20;99.90;;;;;;5081127;28;20210;-65
2024/04/03 06:55:59;;;;;;;13.13;6.70;;;4.20;99.90;;;;;;5083942;28;20182;-64
2024/04/03 06:58:26;;;;;;;13.40;6.40;;;4.20;99.90;;;;;;5076840;28;20221;-64
2024/04/03 07:00:52;;;;;;;9.83;6.30;;;4.20;99.90;;;;;;5073089;28;20457;-65
2024/04/03 07:03:18;;;;;;;7.77;5.43;;;4.20;99.90;;;;;;5079768;28;20432;-64
2024/04/03 07:05:44;;;;;;;8.97;5.30;;;4.30;99.90;;;;;;5073067;28;20695;-64
2024/04/03 07:08:13;;;;;;;7.20;5.17;;;4.30;99.90;;;;;;5076570;28;20219;-64
2024/04/03 07:10:40;;;;;;;10.03;6.07;;;4.40;99.90;;;;;;5079266;28;20992;-64
2024/04/03 07:13:06;;;;;;;12.27;6.30;;;4.40;99.90;;;;;;5075757;28;20479;-63
2024/04/03 07:15:33;;;;;;;8.80;5.83;;;4.50;99.90;;;;;;5086777;28;20432;-63
2024/04/03 07:18:02;;;;;;;13.90;6.77;;;4.60;99.90;;;;;;5081989;28;20437;-64
2024/04/03 07:20:32;;;;;;;11.03;6.90;;;4.60;99.90;;;;;;5077158;28;20439;-65
2024/04/03 07:22:59;;;;;;;7.70;5.60;;;4.70;99.90;;;;;;5075373;28;20477;-65
2024/04/03 07:25:26;;;;;;;14.53;5.90;;;4.80;99.90;;;;;;5081319;28;20745;-64
2024/04/03 07:27:52;;;;;;;12.00;6.30;;;4.90;99.90;;;;;;5079074;28;20505;-64
2024/04/03 07:30:19;;;;;;;13.17;6.37;;;4.90;99.90;;;;;;5080935;28;20463;-63
2024/04/03 07:32:45;;;;;;;10.67;5.30;;;5.00;99.90;;;;;;5078358;28;20977;-64
2024/04/03 07:35:10;;;;;;;10.73;5.47;;;5.10;99.90;;;;;;5079785;28;20420;-64
2024/04/03 07:37:42;;;;;;;10.50;5.80;;;5.20;99.90;;;;;;5083714;28;20480;-63
2024/04/03 07:40:08;;;;;;;10.43;5.47;;;5.20;99.90;;;;;;5074049;28;20209;-64
2024/04/03 07:42:44;;;;;;;9.55;4.88;;;5.30;99.90;;;;;;5075109;28;20444;-62
2024/04/03 07:45:10;;;;;;;10.23;4.90;;;5.40;99.90;;;;;;5083039;28;20208;-64
2024/04/03 07:47:36;;;;;;;13.70;5.80;;;5.50;99.90;;;;;;5083283;28;20491;-64
2024/04/03 07:50:05;;;;;;;9.67;6.30;;;5.60;99.90;;;;;;5078700;28;20198;-63
2024/04/03 07:52:32;;;;;;;16.53;6.03;;;5.80;99.90;;;;;;5077942;28;20203;-64
2024/04/03 07:54:57;;;;;;;7.60;5.53;;;5.90;99.90;;;;;;5079466;28;20436;-65
2024/04/03 07:57:23;;;;;;;13.37;6.07;;;6.00;99.90;;;;;;5082441;28;20417;-65
2024/04/03 07:59:49;;;;;;;14.57;5.77;;;6.10;99.90;;;;;;5080931;28;20224;-64
2024/04/03 08:02:15;;;;;;;9.20;4.90;;;6.20;99.90;;;;;;5080918;28;20223;-64
2024/04/03 08:04:41;;;;;;;12.93;5.83;;;6.30;99.90;;;;;;5080855;28;20300;-63
2024/04/03 08:07:08;;;;;;;7.43;5.05;;;6.40;99.90;;;;;;5079059;28;20961;-64
2024/04/03 08:09:35;;;;;;;11.13;5.13;;;6.50;99.90;;;;;;5080444;28;20189;-64
2024/04/03 08:12:01;;;;;;;8.30;6.13;;;6.60;99.90;;;;;;5080455;28;20857;-64
2024/04/03 08:14:27;;;;;;;11.20;6.17;;;6.60;99.90;;;;;;5081479;28;20436;-65
2024/04/03 08:16:55;;;;;;;17.83;6.20;;;6.70;99.90;;;;;;5081465;28;20543;-65
2024/04/03 08:19:22;;;;;;;11.27;4.90;;;6.80;99.90;;;;;;5080088;28;20174;-63
2024/04/03 08:21:48;;;;;;;11.15;5.55;;;6.90;99.90;;;;;;5082529;28;20448;-65
2024/04/03 08:24:14;;;;;;;11.90;5.23;;;7.20;99.90;;;;;;5076763;28;20186;-63
2024/04/03 08:26:40;;;;;;;8.77;5.00;;;7.30;99.90;;;;;;5082208;28;20185;-66
2024/04/03 08:29:05;;;;;;;10.47;5.07;;;7.40;98.90;;;;;;5080243;28;20440;-62
2024/04/03 08:31:31;;;;;;;11.82;5.80;;;7.50;97.70;;;;;;5082921;28;20294;-64
2024/04/03 08:34:00;;;;;;;15.90;6.50;;;7.70;98.10;;;;;;5076471;28;20175;-65
2024/04/03 08:36:26;;;;;;;9.80;5.57;;;7.90;98.70;;;;;;5079821;28;20178;-64
2024/04/03 08:38:52;;;;;;;9.93;4.83;;;8.10;98.20;;;;;;5082361;28;20978;-65
2024/04/03 08:41:18;;;;;;;12.60;4.40;;;8.40;96.00;;;;;;5083416;28;20471;-62
2024/04/03 08:43:44;;;;;;;7.50;4.80;;;8.60;92.70;;;;;;5081240;28;20420;-62
2024/04/03 08:46:10;;;;;;;10.52;5.15;;;8.90;89.10;;;;;;5080594;28;20427;-62
2024/04/03 08:48:38;;;;;;;13.43;5.18;;;9.10;85.50;;;;;;5079973;28;20177;-61
2024/04/03 08:51:06;;;;;;;6.47;3.70;;;9.30;85.40;;;;;;5074457;28;20195;-64
2024/04/03 08:53:31;;;;;;;5.33;3.00;;;9.50;84.10;;;;;;5079786;28;20466;-65
2024/04/03 08:55:58;;;;;;;7.80;4.00;;;9.60;78.50;;;;;;5079552;28;20431;-65
2024/04/03 08:58:25;;;;;;;6.97;3.65;;;9.60;73.20;;;;;;5074408;28;20833;-65
2024/04/03 09:00:51;;;;;;;4.90;2.85;;;9.70;72.10;;;;;;5082803;28;20197;-64
2024/04/03 09:03:21;;;;;;;3.67;2.70;;;9.70;71.50;;;;;;5080640;28;20550;-63
2024/04/03 09:05:49;;;;;;;1.50;1.40;;;9.70;71.10;;;;;;5075438;28;20443;-63
2024/04/03 09:08:15;;;;;;;1.17;1.17;;;9.80;68.70;;;;;;5079005;28;20424;-63
2024/04/03 09:10:49;;;;;;;3.70;2.20;;;9.80;67.40;;;;;;5077108;28;20313;-65
2024/04/03 09:13:16;;;;;;;9.03;2.50;;;9.80;67.30;;;;;;5076387;28;20557;-66
2024/04/03 09:15:42;;;;;;;31.63;4.07;;;9.80;66.10;;;;;;5078859;28;20420;-65
2024/04/03 09:18:09;;;;;;;12.40;2.27;;;9.90;65.00;;;;;;5079479;28;20792;-66
2024/04/03 09:20:39;;;;;;;3.67;1.30;;;10.00;63.00;;;;;;5082096;28;20593;-63
2024/04/03 09:23:07;;;;;;;19.33;2.57;;;10.10;62.40;;;;;;5070796;28;20448;-63
2024/04/03 09:25:34;;;;;;;12.17;3.47;;;10.20;61.40;;;;;;5069777;28;20425;-63
2024/04/03 09:28:05;;;;;;;3.90;1.40;;;10.30;61.60;;;;;;5079438;28;20420;-65
2024/04/03 09:30:36;;;;;;;12.53;1.87;;;10.40;60.30;;;;;;5077500;28;20526;-63
2024/04/03 09:33:06;;;;;;;5.47;1.38;;;10.50;58.50;;;;;;5084018;28;21036;-64
2024/04/03 09:35:33;;;;;;;1.60;0.90;;;10.70;57.70;;;;;;5078676;28;20174;-64
2024/04/03 09:37:59;;;;;;;7.10;1.30;;;10.80;57.30;;;;;;5082237;28;20525;-65
2024/04/03 09:40:29;;;;;;;2.65;0.80;;;10.70;57.20;;;;;;5078718;28;20528;-65
2024/04/03 09:42:58;;;;;;;4.00;1.10;;;10.70;56.90;;;;;;5084212;28;20520;-65
2024/04/03 09:45:26;;;;;;;2.60;1.17;;;10.70;57.30;;;;;;5080418;28;20424;-64
2024/04/03 09:48:11;;;;;;;1.00;0.90;;;10.80;57.50;;;;;;5073264;28;20440;-65
2024/04/03 09:50:42;;;;;;;1.33;0.95;;;10.80;57.60;;;;;;5073780;28;20969;-65
2024/04/03 09:53:11;;;;;;;2.23;1.00;;;10.80;57.70;;;;;;5074846;28;20199;-65
2024/04/03 09:55:37;;;;;;;12.13;2.07;;;10.80;57.60;;;;;;5084432;28;20420;-64
2024/04/03 09:58:13;;;;;;;1.13;0.80;;;10.70;57.80;;;;;;5077022;28;20420;-65
2024/04/03 10:00:39;;;;;;;2.63;1.00;;;10.70;58.30;;;;;;5076429;28;20466;-66
2024/04/03 10:03:05;;;;;;;4.83;1.00;;;10.60;58.20;;;;;;5080798;28;20496;-63
2024/04/03 10:05:35;;;;;;;5.07;1.13;;;10.50;58.80;;;;;;5075444;28;20424;-64
2024/04/03 10:08:10;;;;;;;1.00;0.90;;;10.30;59.40;;;;;;5074441;28;20519;-63
2024/04/03 10:10:42;;;;;;;8.07;1.40;;;10.30;60.10;;;;;;5082535;28;20443;-63
2024/04/03 10:13:26;;;;;;;4.05;1.20;;;10.20;60.90;;;;;;5083368;28;21013;-64
2024/04/03 10:16:04;;;;;;;1.37;1.10;;;10.10;61.80;;;;;;5076451;28;20266;-64
2024/04/03 10:18:34;;;;;;;1.07;1.07;;;10.10;63.00;;;;;;5085813;28;20530;-62
2024/04/03 10:21:01;;;;;;;1.60;1.00;;;10.00;63.50;;;;;;5080202;28;20444;-61
2024/04/03 10:23:27;;;;;;;1.20;1.10;;;9.90;65.60;;;;;;5082107;28;20186;-60
2024/04/03 10:25:53;;;;;;;1.90;1.25;;;9.90;66.60;;;;;;5082712;28;20170;-60
2024/04/03 10:28:19;;;;;;;4.10;2.73;;;9.80;67.00;;;;;;5081000;28;20170;-63
2024/04/03 10:30:52;;;;;;;2.20;1.40;;;9.70;67.40;;;;;;5086471;28;20252;-63
2024/04/03 10:33:18;;;;;;;1.37;1.27;;;9.70;68.60;;;;;;5082398;28;20206;-64
2024/04/03 10:35:43;;;;;;;1.30;1.20;;;9.60;68.10;;;;;;5084338;28;20487;-62
2024/04/03 10:38:09;;;;;;;1.93;1.40;;;9.50;68.70;;;;;;5087113;28;20190;-65
2024/04/03 10:40:35;;;;;;;1.20;1.10;;;9.50;69.20;;;;;;5079208;28;20209;-64
2024/04/03 10:43:01;;;;;;;1.30;1.20;;;9.50;69.00;;;;;;5083307;28;20431;-64
2024/04/03 10:45:27;;;;;;;1.58;1.20;;;9.50;68.00;;;;;;5078818;28;20185;-65
2024/04/03 10:47:52;;;;;;;2.20;0.93;;;9.50;68.50;;;;;;5079756;28;20680;-58
2024/04/03 10:50:19;;;;;;;1.57;1.20;;;9.60;68.40;;;;;;5081568;28;20459;-58
2024/04/03 10:52:45;;;;;;;1.30;1.17;;;9.60;68.60;;;;;;5077623;28;20279;-63
2024/04/03 10:55:12;;;;;;;1.88;1.00;;;9.60;68.90;;;;;;5085909;28;20949;-64
2024/04/03 10:57:41;;;;;;;1.43;1.00;;;9.60;68.70;;;;;;5084338;28;20261;-65
2024/04/03 11:00:16;;;;;;;5.50;0.97;;;9.60;68.80;;;;;;5082303;28;20966;-62
2024/04/03 11:02:45;;;;;;;1.20;1.10;;;9.50;69.30;;;;;;5084826;28;20440;-65
2024/04/03 11:05:13;;;;;;;2.40;1.57;;;9.50;70.20;;;;;;5081119;28;20472;-66
2024/04/03 11:07:43;;;;;;;1.73;1.40;;;9.40;71.30;;;;;;5080853;28;20818;-66
2024/04/03 11:10:12;;;;;;;1.30;1.03;;;9.40;72.10;;;;;;5082726;28;20456;-64
2024/04/03 11:12:38;;;;;;;1.00;1.00;;;9.30;73.50;;;;;;5082454;28;20479;-65
2024/04/03 11:15:06;;;;;;;5.20;1.07;;;9.30;76.60;;;;;;5078730;28;20421;-63
2024/04/03 11:17:31;;;;;;;1.73;0.90;;;9.30;79.40;;;;;;5083564;28;20423;-64
2024/04/03 11:19:57;;;;;;;1.97;0.83;;;9.30;79.60;;;;;;5079843;28;20456;-65
2024/04/03 11:22:23;;;;;;;1.73;1.20;;;9.20;81.90;;;;;;5079208;28;20279;-63
2024/04/03 11:24:48;;;;;;;1.17;1.08;;;9.20;84.80;;;;;;5081802;28;20186;-64
2024/04/03 11:27:15;;;;;;;1.70;1.20;;;9.20;87.20;;;;;;5078947;28;20308;-65
2024/04/03 11:29:41;;;;;;;1.17;1.07;;;9.20;89.10;;;;;;5082237;28;20212;-65
2024/04/03 11:32:08;;;;;;;2.70;1.20;;;9.30;91.30;;;;;;5081305;28;20526;-64
2024/04/03 11:34:34;;;;;;;2.23;1.40;;;9.30;91.80;;;;;;5084004;28;20435;-64
2024/04/03 11:37:00;;;;;;;2.80;1.33;;;9.30;92.30;;;;;;5084512;28;20432;-65
2024/04/03 11:39:30;;;;;;;1.07;0.97;;;9.30;91.40;;;;;;5083970;28;20416;-56
2024/04/03 11:41:57;;;;;;;1.27;1.10;;;9.30;91.90;;;;;;5084799;28;20197;-57
2024/04/03 11:44:22;;;;;;;1.80;1.10;;;9.30;91.60;;;;;;5082890;28;20450;-58
2024/04/03 11:46:48;;;;;;;1.40;1.30;;;9.30;93.40;;;;;;5082358;28;20919;-56
2024/04/03 11:49:14;;;;;;;2.93;1.77;;;9.20;94.80;;;;;;5078261;28;20201;-57
2024/04/03 11:51:39;;;;;;;1.50;1.40;;;9.20;96.90;;;;;;5082996;28;20230;-57
2024/04/03 11:54:07;;;;;;;1.00;1.00;;;9.10;98.50;;;;;;5083398;28;20171;-56
2024/04/03 11:56:33;;;;;;;2.33;1.27;;;9.20;99.70;;;;;;5085882;28;20169;-57
2024/04/03 11:58:59;;;;;;;1.43;1.33;;;9.20;99.90;;;;;;5077835;28;20593;-57
2024/04/03 12:01:25;;;;;;;1.73;1.20;;;9.20;99.90;;;;;;5082049;28;20460;-64
2024/04/03 12:03:51;;;;;;;2.43;1.40;;;9.20;99.90;;;;;;5079713;28;20435;-64
2024/04/03 12:06:17;;;;;;;9.23;2.40;;;9.30;99.90;;;;;;5083386;28;20415;-65
2024/04/03 12:08:49;;;;;;;6.03;1.50;;;9.30;99.90;;;;;;5072798;28;21134;-65
2024/04/03 12:11:15;;;;;;;2.40;1.10;;;9.30;99.90;;;;;;5074299;28;20198;-64
2024/04/03 12:13:41;;;;;;;1.10;1.00;;;9.40;99.90;;;;;;5086376;28;20468;-65
2024/04/03 12:16:07;;;;;;;1.20;1.10;;;9.40;99.70;;;;;;5079224;28;20439;-63
2024/04/03 12:18:49;;;;;;;1.27;1.10;;;9.40;99.90;;;;;;5085519;28;20177;-64
2024/04/03 12:21:16;;;;;;;1.67;1.00;;;9.40;99.90;;;;;;5081523;28;21117;-64
2024/04/03 12:23:42;;;;;;;2.50;1.20;;;9.40;99.90;;;;;;5081943;28;20958;-64
2024/04/03 12:26:09;;;;;;;1.30;1.20;;;9.40;99.90;;;;;;5081012;28;20429;-62
2024/04/03 12:28:34;;;;;;;1.30;1.13;;;9.40;99.90;;;;;;5078615;28;20173;-63
2024/04/03 12:31:00;;;;;;;1.58;1.48;;;9.40;99.90;;;;;;5078440;28;20468;-65
2024/04/03 12:33:26;;;;;;;2.20;1.33;;;9.30;99.90;;;;;;5083428;28;20208;-64
2024/04/03 12:35:51;;;;;;;1.73;1.40;;;9.30;99.90;;;;;;5081612;28;20171;-64
2024/04/03 12:38:17;;;;;;;3.37;1.63;;;9.30;99.90;;;;;;5081403;28;20185;-65
2024/04/03 12:40:43;;;;;;;2.58;1.98;;;9.30;99.90;;;;;;5081267;28;20266;-64
2024/04/03 12:43:10;;;;;;;1.97;1.33;;;9.20;99.90;;;;;;5077295;28;20182;-64
2024/04/03 12:45:36;;;;;;;2.77;1.57;;;9.20;99.90;;;;;;5083240;28;20174;-63
2024/04/03 12:48:05;;;;;;;1.70;1.40;;;9.20;99.90;;;;;;5079517;28;20819;-65
2024/04/03 12:50:31;;;;;;;5.43;1.47;;;9.10;99.90;;;;;;5082362;28;20205;-63
2024/04/03 12:52:56;;;;;;;4.90;1.73;;;9.10;99.90;;;;;;5075946;28;20464;-63
2024/04/03 12:55:22;;;;;;;2.00;1.60;;;9.10;99.90;;;;;;5081532;28;20657;-64